sensor_id;sensor_type;location;lat;lon;timestamp;P1;durP1;ratioP1;P2;durP2;ratioP2
23668;SDS011;12011;47.422;15.018;2024-01-10T00:00:48;10.79;;;10.62;;
23668;SDS011;12011;47.422;15.018;2024-01-10T00:03:24;10.16;;;10.01;;
23668;SDS011;12011;47.422;15.018;2024-01-10T00:06:14;9.78;;;9.67;;
23668;SDS011;12011;47.422;15.018;2024-01-10T00:09:03;8.53;;;8.35;;
23668;SDS011;12011;47.422;15.018;2024-01-10T00:11:39;8.48;;;8.29;;
23668;SDS011;12011;47.422;15.018;2024-01-10T00:17:06;8.64;;;8.54;;
23668;SDS011;12011;47.422;15.018;2024-01-10T00:19:40;8.55;;;8.41;;
23668;SDS011;12011;47.422;15.018;2024-01-10T00:25:25;8.78;;;8.62;;
23668;SDS011;12011;47.422;15.018;2024-01-10T00:28:03;9.00;;;8.77;;
23668;SDS011;12011;47.422;15.018;2024-01-10T00:30:39;8.60;;;8.43;;
23668;SDS011;12011;47.422;15.018;2024-01-10T00:33:19;9.40;;;9.23;;
23668;SDS011;12011;47.422;15.018;2024-01-10T00:36:06;9.62;;;9.26;;
23668;SDS011;12011;47.422;15.018;2024-01-10T00:38:58;8.48;;;8.26;;
23668;SDS011;12011;47.422;15.018;2024-01-10T00:41:32;9.27;;;9.01;;
23668;SDS011;12011;47.422;15.018;2024-01-10T00:44:15;8.67;;;8.51;;
23668;SDS011;12011;47.422;15.018;2024-01-10T00:46:52;9.48;;;9.16;;
23668;SDS011;12011;47.422;15.018;2024-01-10T00:49:27;8.89;;;8.71;;
23668;SDS011;12011;47.422;15.018;2024-01-10T00:52:14;7.87;;;7.73;;
23668;SDS011;12011;47.422;15.018;2024-01-10T00:54:57;8.19;;;8.08;;
23668;SDS011;12011;47.422;15.018;2024-01-10T00:57:31;7.86;;;7.72;;
23668;SDS011;12011;47.422;15.018;2024-01-10T01:00:09;8.04;;;7.95;;
23668;SDS011;12011;47.422;15.018;2024-01-10T01:03:07;7.91;;;7.82;;
23668;SDS011;12011;47.422;15.018;2024-01-10T01:05:45;7.43;;;7.38;;
23668;SDS011;12011;47.422;15.018;2024-01-10T01:08:20;7.47;;;7.36;;
23668;SDS011;12011;47.422;15.018;2024-01-10T01:11:16;7.14;;;6.97;;
23668;SDS011;12011;47.422;15.018;2024-01-10T01:14:03;7.39;;;7.23;;
23668;SDS011;12011;47.422;15.018;2024-01-10T01:16:47;7.79;;;7.56;;
23668;SDS011;12011;47.422;15.018;2024-01-10T01:19:29;7.64;;;7.47;;
23668;SDS011;12011;47.422;15.018;2024-01-10T01:22:04;7.31;;;7.19;;
23668;SDS011;12011;47.422;15.018;2024-01-10T01:24:39;7.10;;;7.06;;
23668;SDS011;12011;47.422;15.018;2024-01-10T01:27:18;7.43;;;7.35;;
23668;SDS011;12011;47.422;15.018;2024-01-10T01:29:56;7.62;;;7.51;;
23668;SDS011;12011;47.422;15.018;2024-01-10T01:32:37;7.35;;;7.24;;
23668;SDS011;12011;47.422;15.018;2024-01-10T01:35:17;7.72;;;7.59;;
23668;SDS011;12011;47.422;15.018;2024-01-10T01:38:01;7.79;;;7.61;;
23668;SDS011;12011;47.422;15.018;2024-01-10T01:40:39;8.18;;;7.98;;
23668;SDS011;12011;47.422;15.018;2024-01-10T01:43:34;7.69;;;7.49;;
23668;SDS011;12011;47.422;15.018;2024-01-10T01:46:26;7.89;;;7.68;;
23668;SDS011;12011;47.422;15.018;2024-01-10T01:49:12;7.80;;;7.63;;
23668;SDS011;12011;47.422;15.018;2024-01-10T01:51:49;7.73;;;7.57;;
23668;SDS011;12011;47.422;15.018;2024-01-10T01:54:41;8.25;;;8.09;;
23668;SDS011;12011;47.422;15.018;2024-01-10T01:57:17;7.82;;;7.70;;
23668;SDS011;12011;47.422;15.018;2024-01-10T02:00:02;7.65;;;7.50;;
23668;SDS011;12011;47.422;15.018;2024-01-10T02:02:36;7.75;;;7.60;;
23668;SDS011;12011;47.422;15.018;2024-01-10T02:05:21;7.95;;;7.81;;
23668;SDS011;12011;47.422;15.018;2024-01-10T02:07:59;8.08;;;7.96;;
23668;SDS011;12011;47.422;15.018;2024-01-10T02:10:37;7.84;;;7.69;;
23668;SDS011;12011;47.422;15.018;2024-01-10T02:13:23;8.58;;;8.44;;
23668;SDS011;12011;47.422;15.018;2024-01-10T02:16:12;8.52;;;8.38;;
23668;SDS011;12011;47.422;15.018;2024-01-10T02:18:57;8.37;;;8.22;;
23668;SDS011;12011;47.422;15.018;2024-01-10T02:21:38;7.92;;;7.87;;
23668;SDS011;12011;47.422;15.018;2024-01-10T02:24:14;8.21;;;8.09;;
23668;SDS011;12011;47.422;15.018;2024-01-10T02:26:57;8.30;;;8.18;;
23668;SDS011;12011;47.422;15.018;2024-01-10T02:29:45;8.48;;;8.32;;
23668;SDS011;12011;47.422;15.018;2024-01-10T02:32:26;8.47;;;8.32;;
23668;SDS011;12011;47.422;15.018;2024-01-10T02:35:03;8.68;;;8.54;;
23668;SDS011;12011;47.422;15.018;2024-01-10T02:37:39;8.52;;;8.39;;
23668;SDS011;12011;47.422;15.018;2024-01-10T02:40:24;8.42;;;8.34;;
23668;SDS011;12011;47.422;15.018;2024-01-10T02:43:06;8.38;;;8.25;;
23668;SDS011;12011;47.422;15.018;2024-01-10T02:45:42;8.51;;;8.33;;
23668;SDS011;12011;47.422;15.018;2024-01-10T02:48:25;7.82;;;7.65;;
23668;SDS011;12011;47.422;15.018;2024-01-10T02:51:12;8.43;;;8.29;;
23668;SDS011;12011;47.422;15.018;2024-01-10T02:53:52;8.34;;;8.20;;
23668;SDS011;12011;47.422;15.018;2024-01-10T02:56:29;8.55;;;8.33;;
23668;SDS011;12011;47.422;15.018;2024-01-10T02:59:07;8.39;;;8.21;;
23668;SDS011;12011;47.422;15.018;2024-01-10T03:01:46;8.91;;;8.70;;
23668;SDS011;12011;47.422;15.018;2024-01-10T03:04:23;8.37;;;8.24;;
23668;SDS011;12011;47.422;15.018;2024-01-10T03:07:12;8.58;;;8.46;;
23668;SDS011;12011;47.422;15.018;2024-01-10T03:09:56;8.66;;;8.41;;
23668;SDS011;12011;47.422;15.018;2024-01-10T03:12:32;8.57;;;8.38;;
23668;SDS011;12011;47.422;15.018;2024-01-10T03:15:15;8.60;;;8.49;;
23668;SDS011;12011;47.422;15.018;2024-01-10T03:18:02;9.42;;;9.24;;
23668;SDS011;12011;47.422;15.018;2024-01-10T03:20:41;8.94;;;8.65;;
23668;SDS011;12011;47.422;15.018;2024-01-10T03:23:20;9.03;;;8.84;;
23668;SDS011;12011;47.422;15.018;2024-01-10T03:26:02;9.54;;;9.33;;
23668;SDS011;12011;47.422;15.018;2024-01-10T03:28:43;9.24;;;8.97;;
23668;SDS011;12011;47.422;15.018;2024-01-10T03:34:23;9.06;;;8.88;;
23668;SDS011;12011;47.422;15.018;2024-01-10T03:36:58;9.54;;;9.34;;
23668;SDS011;12011;47.422;15.018;2024-01-10T03:39:40;9.74;;;9.54;;
23668;SDS011;12011;47.422;15.018;2024-01-10T03:42:16;8.78;;;8.63;;
23668;SDS011;12011;47.422;15.018;2024-01-10T03:44:57;9.20;;;8.98;;
23668;SDS011;12011;47.422;15.018;2024-01-10T03:47:39;9.45;;;9.24;;
23668;SDS011;12011;47.422;15.018;2024-01-10T03:50:18;9.06;;;8.88;;
23668;SDS011;12011;47.422;15.018;2024-01-10T03:52:49;9.29;;;9.08;;
23668;SDS011;12011;47.422;15.018;2024-01-10T03:55:27;9.81;;;9.59;;
23668;SDS011;12011;47.422;15.018;2024-01-10T03:58:01;10.30;;;10.10;;
23668;SDS011;12011;47.422;15.018;2024-01-10T04:00:38;10.36;;;10.15;;
23668;SDS011;12011;47.422;15.018;2024-01-10T04:03:18;10.94;;;10.69;;
23668;SDS011;12011;47.422;15.018;2024-01-10T04:06:01;9.63;;;9.44;;
23668;SDS011;12011;47.422;15.018;2024-01-10T04:08:42;10.07;;;9.87;;
23668;SDS011;12011;47.422;15.018;2024-01-10T04:11:19;10.16;;;9.96;;
23668;SDS011;12011;47.422;15.018;2024-01-10T04:14:00;10.01;;;9.80;;
23668;SDS011;12011;47.422;15.018;2024-01-10T04:16:38;9.69;;;9.50;;
23668;SDS011;12011;47.422;15.018;2024-01-10T04:19:29;9.82;;;9.69;;
23668;SDS011;12011;47.422;15.018;2024-01-10T04:22:10;9.78;;;9.57;;
23668;SDS011;12011;47.422;15.018;2024-01-10T04:25:06;9.76;;;9.56;;
23668;SDS011;12011;47.422;15.018;2024-01-10T04:27:38;9.41;;;9.24;;
23668;SDS011;12011;47.422;15.018;2024-01-10T04:30:11;9.63;;;9.52;;
23668;SDS011;12011;47.422;15.018;2024-01-10T04:32:50;10.37;;;10.02;;
23668;SDS011;12011;47.422;15.018;2024-01-10T04:35:27;9.97;;;9.68;;
23668;SDS011;12011;47.422;15.018;2024-01-10T04:38:02;10.39;;;10.14;;
23668;SDS011;12011;47.422;15.018;2024-01-10T04:40:32;10.33;;;10.05;;
23668;SDS011;12011;47.422;15.018;2024-01-10T04:43:02;10.32;;;10.12;;
23668;SDS011;12011;47.422;15.018;2024-01-10T04:45:35;9.91;;;9.69;;
23668;SDS011;12011;47.422;15.018;2024-01-10T04:48:11;9.49;;;9.30;;
23668;SDS011;12011;47.422;15.018;2024-01-10T04:50:46;9.91;;;9.62;;
23668;SDS011;12011;47.422;15.018;2024-01-10T04:53:19;10.05;;;9.80;;
23668;SDS011;12011;47.422;15.018;2024-01-10T04:55:49;10.25;;;9.91;;
23668;SDS011;12011;47.422;15.018;2024-01-10T04:58:21;10.46;;;10.17;;
23668;SDS011;12011;47.422;15.018;2024-01-10T05:00:55;9.94;;;9.69;;
23668;SDS011;12011;47.422;15.018;2024-01-10T05:03:25;9.56;;;9.29;;
23668;SDS011;12011;47.422;15.018;2024-01-10T05:05:57;9.73;;;9.51;;
23668;SDS011;12011;47.422;15.018;2024-01-10T05:08:33;10.12;;;9.80;;
23668;SDS011;12011;47.422;15.018;2024-01-10T05:11:03;9.58;;;9.31;;
23668;SDS011;12011;47.422;15.018;2024-01-10T05:13:41;10.05;;;9.79;;
23668;SDS011;12011;47.422;15.018;2024-01-10T05:16:12;9.94;;;9.58;;
23668;SDS011;12011;47.422;15.018;2024-01-10T05:18:49;10.13;;;9.80;;
23668;SDS011;12011;47.422;15.018;2024-01-10T05:21:23;10.18;;;10.02;;
23668;SDS011;12011;47.422;15.018;2024-01-10T05:23:59;10.19;;;10.01;;
23668;SDS011;12011;47.422;15.018;2024-01-10T05:26:38;10.35;;;10.09;;
23668;SDS011;12011;47.422;15.018;2024-01-10T05:29:09;9.45;;;9.30;;
23668;SDS011;12011;47.422;15.018;2024-01-10T05:31:40;9.82;;;9.65;;
23668;SDS011;12011;47.422;15.018;2024-01-10T05:34:16;9.73;;;9.51;;
23668;SDS011;12011;47.422;15.018;2024-01-10T05:36:55;9.53;;;9.42;;
23668;SDS011;12011;47.422;15.018;2024-01-10T05:39:27;9.91;;;9.75;;
23668;SDS011;12011;47.422;15.018;2024-01-10T05:42:01;10.52;;;10.29;;
23668;SDS011;12011;47.422;15.018;2024-01-10T05:44:37;9.90;;;9.67;;
23668;SDS011;12011;47.422;15.018;2024-01-10T05:47:10;9.42;;;9.19;;
23668;SDS011;12011;47.422;15.018;2024-01-10T05:50:07;9.75;;;9.53;;
23668;SDS011;12011;47.422;15.018;2024-01-10T05:53:01;9.26;;;9.07;;
23668;SDS011;12011;47.422;15.018;2024-01-10T05:55:48;10.39;;;10.05;;
23668;SDS011;12011;47.422;15.018;2024-01-10T05:58:45;10.73;;;10.48;;
23668;SDS011;12011;47.422;15.018;2024-01-10T06:01:29;11.78;;;11.52;;
23668;SDS011;12011;47.422;15.018;2024-01-10T06:04:11;14.29;;;13.89;;
23668;SDS011;12011;47.422;15.018;2024-01-10T06:06:49;15.54;;;14.97;;
23668;SDS011;12011;47.422;15.018;2024-01-10T06:09:22;17.28;;;16.69;;
23668;SDS011;12011;47.422;15.018;2024-01-10T06:11:55;17.93;;;17.28;;
23668;SDS011;12011;47.422;15.018;2024-01-10T06:14:32;14.55;;;13.95;;
23668;SDS011;12011;47.422;15.018;2024-01-10T06:17:10;11.52;;;11.23;;
23668;SDS011;12011;47.422;15.018;2024-01-10T06:19:45;12.15;;;11.75;;
23668;SDS011;12011;47.422;15.018;2024-01-10T06:22:22;12.32;;;12.02;;
23668;SDS011;12011;47.422;15.018;2024-01-10T06:25:04;11.91;;;11.69;;
23668;SDS011;12011;47.422;15.018;2024-01-10T06:27:44;10.74;;;10.48;;
23668;SDS011;12011;47.422;15.018;2024-01-10T06:30:25;10.43;;;10.15;;
23668;SDS011;12011;47.422;15.018;2024-01-10T06:32:56;10.48;;;10.31;;
23668;SDS011;12011;47.422;15.018;2024-01-10T06:35:39;10.81;;;10.64;;
23668;SDS011;12011;47.422;15.018;2024-01-10T06:38:14;10.24;;;10.08;;
23668;SDS011;12011;47.422;15.018;2024-01-10T06:40:51;10.72;;;10.50;;
23668;SDS011;12011;47.422;15.018;2024-01-10T06:43:21;11.37;;;11.06;;
23668;SDS011;12011;47.422;15.018;2024-01-10T06:45:51;10.84;;;10.68;;
23668;SDS011;12011;47.422;15.018;2024-01-10T06:48:20;10.51;;;10.30;;
23668;SDS011;12011;47.422;15.018;2024-01-10T06:50:49;9.85;;;9.68;;
23668;SDS011;12011;47.422;15.018;2024-01-10T06:53:19;11.19;;;10.92;;
23668;SDS011;12011;47.422;15.018;2024-01-10T06:55:48;10.72;;;10.49;;
23668;SDS011;12011;47.422;15.018;2024-01-10T06:58:20;10.51;;;10.27;;
23668;SDS011;12011;47.422;15.018;2024-01-10T07:00:50;10.45;;;10.26;;
23668;SDS011;12011;47.422;15.018;2024-01-10T07:03:19;11.69;;;11.42;;
23668;SDS011;12011;47.422;15.018;2024-01-10T07:05:49;11.62;;;11.29;;
23668;SDS011;12011;47.422;15.018;2024-01-10T07:08:18;11.52;;;11.31;;
23668;SDS011;12011;47.422;15.018;2024-01-10T07:10:47;11.11;;;10.98;;
23668;SDS011;12011;47.422;15.018;2024-01-10T07:13:20;10.78;;;10.65;;
23668;SDS011;12011;47.422;15.018;2024-01-10T07:15:49;10.79;;;10.57;;
23668;SDS011;12011;47.422;15.018;2024-01-10T07:18:19;9.93;;;9.72;;
23668;SDS011;12011;47.422;15.018;2024-01-10T07:20:48;10.43;;;10.23;;
23668;SDS011;12011;47.422;15.018;2024-01-10T07:23:18;12.01;;;11.69;;
23668;SDS011;12011;47.422;15.018;2024-01-10T07:25:48;13.63;;;13.15;;
23668;SDS011;12011;47.422;15.018;2024-01-10T07:28:20;12.55;;;11.99;;
23668;SDS011;12011;47.422;15.018;2024-01-10T07:30:50;11.49;;;11.16;;
23668;SDS011;12011;47.422;15.018;2024-01-10T07:33:19;11.39;;;11.10;;
23668;SDS011;12011;47.422;15.018;2024-01-10T07:35:49;14.99;;;14.38;;
23668;SDS011;12011;47.422;15.018;2024-01-10T07:38:18;17.34;;;16.53;;
23668;SDS011;12011;47.422;15.018;2024-01-10T07:40:47;18.98;;;17.82;;
23668;SDS011;12011;47.422;15.018;2024-01-10T07:43:19;18.03;;;16.89;;
23668;SDS011;12011;47.422;15.018;2024-01-10T07:45:49;14.07;;;13.35;;
23668;SDS011;12011;47.422;15.018;2024-01-10T07:48:18;11.27;;;10.93;;
23668;SDS011;12011;47.422;15.018;2024-01-10T07:50:48;10.66;;;10.35;;
23668;SDS011;12011;47.422;15.018;2024-01-10T07:53:18;9.58;;;9.40;;
23668;SDS011;12011;47.422;15.018;2024-01-10T07:55:47;8.93;;;8.83;;
23668;SDS011;12011;47.422;15.018;2024-01-10T07:58:16;8.97;;;8.78;;
23668;SDS011;12011;47.422;15.018;2024-01-10T08:00:49;8.83;;;8.63;;
23668;SDS011;12011;47.422;15.018;2024-01-10T08:03:19;14.13;;;13.79;;
23668;SDS011;12011;47.422;15.018;2024-01-10T08:05:49;18.65;;;18.21;;
23668;SDS011;12011;47.422;15.018;2024-01-10T08:08:18;13.61;;;13.32;;
23668;SDS011;12011;47.422;15.018;2024-01-10T09:09:28;12.36;;;12.30;;
23668;SDS011;12011;47.422;15.018;2024-01-10T09:11:57;12.27;;;12.20;;
23668;SDS011;12011;47.422;15.018;2024-01-10T09:14:27;11.42;;;11.37;;
23668;SDS011;12011;47.422;15.018;2024-01-10T09:16:56;11.47;;;11.37;;
23668;SDS011;12011;47.422;15.018;2024-01-10T09:19:28;12.02;;;11.95;;
23668;SDS011;12011;47.422;15.018;2024-01-10T09:21:58;12.34;;;12.17;;
23668;SDS011;12011;47.422;15.018;2024-01-10T09:24:30;12.02;;;11.91;;
23668;SDS011;12011;47.422;15.018;2024-01-10T09:27:01;13.05;;;12.86;;
23668;SDS011;12011;47.422;15.018;2024-01-10T09:29:30;12.97;;;12.71;;
23668;SDS011;12011;47.422;15.018;2024-01-10T09:31:59;12.76;;;12.55;;
23668;SDS011;12011;47.422;15.018;2024-01-10T09:34:29;13.43;;;13.19;;
23668;SDS011;12011;47.422;15.018;2024-01-10T09:36:58;12.69;;;12.48;;
23668;SDS011;12011;47.422;15.018;2024-01-10T09:39:30;13.55;;;13.13;;
23668;SDS011;12011;47.422;15.018;2024-01-10T09:42:00;13.66;;;13.26;;
23668;SDS011;12011;47.422;15.018;2024-01-10T09:44:30;13.60;;;13.35;;
23668;SDS011;12011;47.422;15.018;2024-01-10T09:46:59;13.38;;;12.97;;
23668;SDS011;12011;47.422;15.018;2024-01-10T09:49:30;12.50;;;12.22;;
23668;SDS011;12011;47.422;15.018;2024-01-10T09:52:00;12.87;;;12.63;;
23668;SDS011;12011;47.422;15.018;2024-01-10T09:54:37;12.81;;;12.53;;
23668;SDS011;12011;47.422;15.018;2024-01-10T09:57:12;12.89;;;12.58;;
23668;SDS011;12011;47.422;15.018;2024-01-10T09:59:41;12.00;;;11.70;;
23668;SDS011;12011;47.422;15.018;2024-01-10T10:02:12;12.18;;;11.93;;
23668;SDS011;12011;47.422;15.018;2024-01-10T10:04:45;12.64;;;12.31;;
23668;SDS011;12011;47.422;15.018;2024-01-10T10:07:25;12.21;;;11.90;;
23668;SDS011;12011;47.422;15.018;2024-01-10T10:09:57;11.89;;;11.65;;
23668;SDS011;12011;47.422;15.018;2024-01-10T10:12:41;11.18;;;11.03;;
23668;SDS011;12011;47.422;15.018;2024-01-10T10:15:12;11.17;;;10.94;;
23668;SDS011;12011;47.422;15.018;2024-01-10T10:17:44;10.71;;;10.55;;
23668;SDS011;12011;47.422;15.018;2024-01-10T10:20:20;10.84;;;10.62;;
23668;SDS011;12011;47.422;15.018;2024-01-10T10:22:58;10.88;;;10.60;;
23668;SDS011;12011;47.422;15.018;2024-01-10T10:25:32;10.84;;;10.54;;
23668;SDS011;12011;47.422;15.018;2024-01-10T10:28:04;11.56;;;11.24;;
23668;SDS011;12011;47.422;15.018;2024-01-10T10:30:34;10.89;;;10.69;;
23668;SDS011;12011;47.422;15.018;2024-01-10T10:33:04;10.60;;;10.48;;
23668;SDS011;12011;47.422;15.018;2024-01-10T10:35:34;10.65;;;10.46;;
23668;SDS011;12011;47.422;15.018;2024-01-10T10:38:04;10.29;;;10.14;;
23668;SDS011;12011;47.422;15.018;2024-01-10T10:40:38;10.31;;;10.10;;
23668;SDS011;12011;47.422;15.018;2024-01-10T10:43:08;10.64;;;10.35;;
23668;SDS011;12011;47.422;15.018;2024-01-10T10:45:43;10.43;;;10.22;;
23668;SDS011;12011;47.422;15.018;2024-01-10T10:48:17;10.15;;;9.93;;
23668;SDS011;12011;47.422;15.018;2024-01-10T10:50:50;9.03;;;8.78;;
23668;SDS011;12011;47.422;15.018;2024-01-10T10:53:35;8.57;;;8.50;;
23668;SDS011;12011;47.422;15.018;2024-01-10T10:56:09;7.96;;;7.88;;
23668;SDS011;12011;47.422;15.018;2024-01-10T10:58:39;8.17;;;8.06;;
23668;SDS011;12011;47.422;15.018;2024-01-10T11:01:11;9.02;;;8.85;;
23668;SDS011;12011;47.422;15.018;2024-01-10T11:03:41;7.74;;;7.57;;
23668;SDS011;12011;47.422;15.018;2024-01-10T11:06:12;7.46;;;7.30;;
23668;SDS011;12011;47.422;15.018;2024-01-10T11:08:44;7.46;;;7.38;;
23668;SDS011;12011;47.422;15.018;2024-01-10T11:11:32;7.51;;;7.45;;
23668;SDS011;12011;47.422;15.018;2024-01-10T11:14:22;8.10;;;7.94;;
23668;SDS011;12011;47.422;15.018;2024-01-10T11:20:14;7.51;;;7.38;;
23668;SDS011;12011;47.422;15.018;2024-01-10T11:23:06;7.41;;;7.31;;
23668;SDS011;12011;47.422;15.018;2024-01-10T11:26:06;7.75;;;7.70;;
23668;SDS011;12011;47.422;15.018;2024-01-10T11:28:39;6.51;;;6.46;;
23668;SDS011;12011;47.422;15.018;2024-01-10T11:31:09;6.65;;;6.57;;
23668;SDS011;12011;47.422;15.018;2024-01-10T11:33:39;6.69;;;6.56;;
23668;SDS011;12011;47.422;15.018;2024-01-10T11:36:14;6.57;;;6.53;;
23668;SDS011;12011;47.422;15.018;2024-01-10T11:38:49;6.66;;;6.64;;
23668;SDS011;12011;47.422;15.018;2024-01-10T11:41:26;5.86;;;5.81;;
23668;SDS011;12011;47.422;15.018;2024-01-10T11:47:19;6.22;;;6.16;;
23668;SDS011;12011;47.422;15.018;2024-01-10T11:49:55;5.75;;;5.68;;
23668;SDS011;12011;47.422;15.018;2024-01-10T11:52:31;6.05;;;5.98;;
23668;SDS011;12011;47.422;15.018;2024-01-10T11:55:03;5.72;;;5.66;;
23668;SDS011;12011;47.422;15.018;2024-01-10T11:57:34;5.37;;;5.32;;
23668;SDS011;12011;47.422;15.018;2024-01-10T12:00:06;5.40;;;5.35;;
23668;SDS011;12011;47.422;15.018;2024-01-10T12:02:37;5.05;;;5.00;;
23668;SDS011;12011;47.422;15.018;2024-01-10T12:05:07;5.55;;;5.51;;
23668;SDS011;12011;47.422;15.018;2024-01-10T12:07:38;5.55;;;5.53;;
23668;SDS011;12011;47.422;15.018;2024-01-10T12:10:09;5.48;;;5.44;;
23668;SDS011;12011;47.422;15.018;2024-01-10T12:12:38;5.02;;;4.96;;
23668;SDS011;12011;47.422;15.018;2024-01-10T12:15:11;4.96;;;4.93;;
23668;SDS011;12011;47.422;15.018;2024-01-10T12:17:40;5.57;;;5.53;;
23668;SDS011;12011;47.422;15.018;2024-01-10T12:20:10;5.57;;;5.55;;
23668;SDS011;12011;47.422;15.018;2024-01-10T12:22:40;4.93;;;4.93;;
23668;SDS011;12011;47.422;15.018;2024-01-10T12:25:10;5.07;;;5.05;;
23668;SDS011;12011;47.422;15.018;2024-01-10T12:27:40;5.24;;;5.21;;
23668;SDS011;12011;47.422;15.018;2024-01-10T12:30:12;5.03;;;5.02;;
23668;SDS011;12011;47.422;15.018;2024-01-10T12:32:42;4.79;;;4.79;;
23668;SDS011;12011;47.422;15.018;2024-01-10T12:35:12;4.90;;;4.88;;
23668;SDS011;12011;47.422;15.018;2024-01-10T12:37:52;4.87;;;4.85;;
23668;SDS011;12011;47.422;15.018;2024-01-10T12:40:23;5.04;;;4.99;;
23668;SDS011;12011;47.422;15.018;2024-01-10T12:43:01;5.39;;;5.36;;
23668;SDS011;12011;47.422;15.018;2024-01-10T12:45:33;5.52;;;5.50;;
23668;SDS011;12011;47.422;15.018;2024-01-10T12:48:04;5.10;;;5.07;;
23668;SDS011;12011;47.422;15.018;2024-01-10T12:50:35;4.86;;;4.85;;
23668;SDS011;12011;47.422;15.018;2024-01-10T12:53:04;5.05;;;5.04;;
23668;SDS011;12011;47.422;15.018;2024-01-10T12:55:33;5.01;;;5.00;;
23668;SDS011;12011;47.422;15.018;2024-01-10T12:58:03;5.64;;;5.63;;
23668;SDS011;12011;47.422;15.018;2024-01-10T13:00:36;5.58;;;5.54;;
23668;SDS011;12011;47.422;15.018;2024-01-10T13:03:06;5.79;;;5.73;;
23668;SDS011;12011;47.422;15.018;2024-01-10T13:05:35;5.96;;;5.91;;
23668;SDS011;12011;47.422;15.018;2024-01-10T13:08:05;5.44;;;5.43;;
23668;SDS011;12011;47.422;15.018;2024-01-10T13:10:34;5.45;;;5.43;;
23668;SDS011;12011;47.422;15.018;2024-01-10T13:13:03;5.56;;;5.53;;
23668;SDS011;12011;47.422;15.018;2024-01-10T13:15:36;5.18;;;5.13;;
23668;SDS011;12011;47.422;15.018;2024-01-10T13:18:06;5.65;;;5.59;;
23668;SDS011;12011;47.422;15.018;2024-01-10T13:20:36;5.54;;;5.49;;
23668;SDS011;12011;47.422;15.018;2024-01-10T13:23:06;5.17;;;5.13;;
23668;SDS011;12011;47.422;15.018;2024-01-10T13:25:36;4.99;;;4.96;;
23668;SDS011;12011;47.422;15.018;2024-01-10T13:28:06;5.17;;;5.12;;
23668;SDS011;12011;47.422;15.018;2024-01-10T13:30:40;4.82;;;4.79;;
23668;SDS011;12011;47.422;15.018;2024-01-10T13:33:09;5.53;;;5.50;;
23668;SDS011;12011;47.422;15.018;2024-01-10T13:35:39;5.37;;;5.33;;
23668;SDS011;12011;47.422;15.018;2024-01-10T13:38:08;5.04;;;5.02;;
23668;SDS011;12011;47.422;15.018;2024-01-10T13:40:38;4.97;;;4.91;;
23668;SDS011;12011;47.422;15.018;2024-01-10T13:43:07;5.40;;;5.30;;
23668;SDS011;12011;47.422;15.018;2024-01-10T13:45:39;5.26;;;5.19;;
23668;SDS011;12011;47.422;15.018;2024-01-10T13:48:09;5.49;;;5.40;;
23668;SDS011;12011;47.422;15.018;2024-01-10T13:50:39;5.43;;;5.34;;
23668;SDS011;12011;47.422;15.018;2024-01-10T13:53:08;5.43;;;5.33;;
23668;SDS011;12011;47.422;15.018;2024-01-10T13:55:38;5.29;;;5.20;;
23668;SDS011;12011;47.422;15.018;2024-01-10T13:58:08;5.43;;;5.38;;
23668;SDS011;12011;47.422;15.018;2024-01-10T14:00:40;5.04;;;4.98;;
23668;SDS011;12011;47.422;15.018;2024-01-10T14:03:09;5.45;;;5.40;;
23668;SDS011;12011;47.422;15.018;2024-01-10T14:05:39;4.98;;;4.91;;
23668;SDS011;12011;47.422;15.018;2024-01-10T14:08:09;5.22;;;5.14;;
23668;SDS011;12011;47.422;15.018;2024-01-10T14:10:39;5.59;;;5.48;;
23668;SDS011;12011;47.422;15.018;2024-01-10T14:13:08;5.63;;;5.55;;
23668;SDS011;12011;47.422;15.018;2024-01-10T14:15:40;5.52;;;5.42;;
23668;SDS011;12011;47.422;15.018;2024-01-10T14:18:10;6.26;;;6.14;;
23668;SDS011;12011;47.422;15.018;2024-01-10T14:20:40;6.50;;;6.31;;
23668;SDS011;12011;47.422;15.018;2024-01-10T14:23:10;5.76;;;5.64;;
23668;SDS011;12011;47.422;15.018;2024-01-10T14:25:39;4.78;;;4.72;;
23668;SDS011;12011;47.422;15.018;2024-01-10T14:28:09;5.51;;;5.45;;
23668;SDS011;12011;47.422;15.018;2024-01-10T14:30:41;5.70;;;5.65;;
23668;SDS011;12011;47.422;15.018;2024-01-10T14:33:10;6.04;;;5.98;;
23668;SDS011;12011;47.422;15.018;2024-01-10T14:35:40;5.38;;;5.27;;
23668;SDS011;12011;47.422;15.018;2024-01-10T14:38:10;5.49;;;5.39;;
23668;SDS011;12011;47.422;15.018;2024-01-10T14:40:39;5.53;;;5.44;;
23668;SDS011;12011;47.422;15.018;2024-01-10T14:43:09;5.74;;;5.65;;
23668;SDS011;12011;47.422;15.018;2024-01-10T14:45:41;5.83;;;5.78;;
23668;SDS011;12011;47.422;15.018;2024-01-10T14:48:10;5.36;;;5.29;;
23668;SDS011;12011;47.422;15.018;2024-01-10T14:50:40;5.47;;;5.38;;
23668;SDS011;12011;47.422;15.018;2024-01-10T14:53:09;5.70;;;5.62;;
23668;SDS011;12011;47.422;15.018;2024-01-10T14:55:39;5.18;;;5.14;;
23668;SDS011;12011;47.422;15.018;2024-01-10T14:58:08;5.13;;;5.08;;
23668;SDS011;12011;47.422;15.018;2024-01-10T15:00:41;5.26;;;5.18;;
23668;SDS011;12011;47.422;15.018;2024-01-10T15:03:10;5.05;;;4.97;;
23668;SDS011;12011;47.422;15.018;2024-01-10T15:05:40;5.37;;;5.28;;
23668;SDS011;12011;47.422;15.018;2024-01-10T15:08:10;5.61;;;5.53;;
23668;SDS011;12011;47.422;15.018;2024-01-10T15:10:39;5.55;;;5.45;;
23668;SDS011;12011;47.422;15.018;2024-01-10T15:13:09;5.40;;;5.28;;
23668;SDS011;12011;47.422;15.018;2024-01-10T15:15:42;5.37;;;5.29;;
23668;SDS011;12011;47.422;15.018;2024-01-10T15:18:12;5.44;;;5.38;;
23668;SDS011;12011;47.422;15.018;2024-01-10T15:20:41;5.67;;;5.64;;
23668;SDS011;12011;47.422;15.018;2024-01-10T15:23:11;5.72;;;5.68;;
23668;SDS011;12011;47.422;15.018;2024-01-10T15:25:41;6.25;;;6.20;;
23668;SDS011;12011;47.422;15.018;2024-01-10T15:28:10;6.35;;;6.27;;
23668;SDS011;12011;47.422;15.018;2024-01-10T15:30:39;7.15;;;7.04;;
23668;SDS011;12011;47.422;15.018;2024-01-10T15:33:12;7.61;;;7.53;;
23668;SDS011;12011;47.422;15.018;2024-01-10T15:35:41;7.60;;;7.52;;
23668;SDS011;12011;47.422;15.018;2024-01-10T15:38:12;7.48;;;7.36;;
23668;SDS011;12011;47.422;15.018;2024-01-10T15:40:41;7.50;;;7.31;;
23668;SDS011;12011;47.422;15.018;2024-01-10T15:43:11;7.39;;;7.25;;
23668;SDS011;12011;47.422;15.018;2024-01-10T15:45:43;7.56;;;7.44;;
23668;SDS011;12011;47.422;15.018;2024-01-10T15:48:12;7.61;;;7.48;;
23668;SDS011;12011;47.422;15.018;2024-01-10T15:50:42;8.40;;;8.28;;
23668;SDS011;12011;47.422;15.018;2024-01-10T15:53:11;8.25;;;8.06;;
23668;SDS011;12011;47.422;15.018;2024-01-10T15:55:42;8.54;;;8.38;;
23668;SDS011;12011;47.422;15.018;2024-01-10T15:58:11;8.82;;;8.70;;
23668;SDS011;12011;47.422;15.018;2024-01-10T16:00:43;8.44;;;8.37;;
23668;SDS011;12011;47.422;15.018;2024-01-10T16:03:13;8.92;;;8.76;;
23668;SDS011;12011;47.422;15.018;2024-01-10T16:05:42;8.40;;;8.18;;
23668;SDS011;12011;47.422;15.018;2024-01-10T16:08:14;7.71;;;7.54;;
23668;SDS011;12011;47.422;15.018;2024-01-10T16:10:43;7.61;;;7.41;;
23668;SDS011;12011;47.422;15.018;2024-01-10T16:13:13;7.62;;;7.42;;
23668;SDS011;12011;47.422;15.018;2024-01-10T16:15:45;7.69;;;7.52;;
23668;SDS011;12011;47.422;15.018;2024-01-10T16:18:15;8.40;;;8.27;;
23668;SDS011;12011;47.422;15.018;2024-01-10T16:20:44;8.39;;;8.28;;
23668;SDS011;12011;47.422;15.018;2024-01-10T16:23:14;9.60;;;9.39;;